Time;durP1;ratioP1;P1;durP2;ratioP2;P2;SDS_P1;SDS_P2;PMS_P1;PMS_P2;Temp;Humidity;BMP_temperature;BMP_pressure;BME280_temperature;BME280_humidity;BME280_pressure;Samples;Min_cycle;Max_cycle;Signal;HPM_P1;HPM_P2
2022/09/09 00:01:08;;;;;;;0.38;0.38;;;;;;;17.41;80.76;99364.50;4996851;28;20046;-65
2022/09/09 00:03:46;;;;;;;0.40;0.40;;;;;;;17.44;80.74;99374.72;4996761;28;20046;-66
2022/09/09 00:06:25;;;;;;;0.50;0.50;;;;;;;17.42;80.75;99371.34;4997085;28;20551;-66
2022/09/09 00:09:05;;;;;;;0.75;0.75;;;;;;;17.38;80.90;99372.34;4997112;28;20511;-66
2022/09/09 00:11:42;;;;;;;0.50;0.50;;;;;;;17.36;80.85;99371.56;4996722;28;20097;-66
2022/09/09 00:14:19;;;;;;;0.40;0.40;;;;;;;17.33;81.02;99374.22;4996687;28;20051;-65
2022/09/09 00:16:55;;;;;;;0.50;0.50;;;;;;;17.36;81.15;99371.56;4997517;28;20128;-68
2022/09/09 00:19:31;;;;;;;0.40;0.40;;;;;;;17.43;81.05;99367.88;4996923;28;20050;-66
2022/09/09 00:22:09;;;;;;;0.40;0.40;;;;;;;17.44;80.92;99364.38;4996796;28;20408;-66
2022/09/09 00:24:44;;;;;;;0.30;0.30;;;;;;;17.41;80.62;99364.50;4996432;28;20053;-66
2022/09/09 00:27:20;;;;;;;0.40;0.40;;;;;;;17.35;80.46;99358.69;4996472;28;20047;-66
2022/09/09 00:29:54;;;;;;;0.40;0.40;;;;;;;17.23;80.60;99359.09;4996515;28;20121;-65
2022/09/09 00:32:26;;;;;;;0.40;0.40;;;;;;;17.12;80.54;99362.03;4996336;28;20166;-65
2022/09/09 00:35:01;;;;;;;0.50;0.50;;;;;;;17.02;80.68;99364.94;4978884;28;20496;-66
2022/09/09 00:37:33;;;;;;;0.43;0.43;;;;;;;17.01;80.82;99361.53;4996591;28;20047;-66
2022/09/09 00:40:17;;;;;;;0.50;0.50;;;;;;;17.09;80.82;99362.13;4978917;28;20081;-66
2022/09/09 00:42:50;;;;;;;0.60;0.60;;;;;;;17.01;80.69;99364.09;4996251;28;20125;-66
2022/09/09 00:45:47;;;;;;;0.60;0.60;;;;;;;16.96;81.07;99360.00;4996241;28;20431;-66
2022/09/09 00:48:16;;;;;;;0.40;0.40;;;;;;;16.97;81.12;99357.38;4996325;28;20133;-65
2022/09/09 00:50:55;;;;;;;0.70;0.70;;;;;;;17.03;80.97;99354.59;4979013;28;20496;-66
2022/09/09 00:53:34;;;;;;;0.40;0.40;;;;;;;16.96;80.84;99357.44;4996217;28;20436;-66
2022/09/09 00:56:13;;;;;;;1.20;1.10;;;;;;;16.93;80.76;99360.94;4995823;28;20141;-66
2022/09/09 00:58:50;;;;;;;0.45;0.45;;;;;;;16.97;80.97;99362.53;4978948;28;20046;-66
2022/09/09 01:01:18;;;;;;;0.50;0.50;;;;;;;17.04;80.89;99366.59;4978462;28;20484;-66
2022/09/09 01:03:53;;;;;;;0.50;0.50;;;;;;;17.08;81.06;99370.78;4995936;28;20051;-66
2022/09/09 01:06:30;;;;;;;0.40;0.40;;;;;;;17.08;80.58;99365.63;4995786;28;20524;-67
2022/09/09 01:09:20;;;;;;;0.38;0.38;;;;;;;16.93;80.19;99371.25;4978337;28;20559;-66
2022/09/09 01:11:58;;;;;;;0.60;0.60;;;;;;;16.70;80.25;99371.09;4978223;28;20133;-66
2022/09/09 01:14:41;;;;;;;0.40;0.40;;;;;;;16.69;80.62;99366.84;4978177;28;20046;-66
2022/09/09 01:17:17;;;;;;;0.40;0.40;;;;;;;16.62;80.50;99363.63;4978348;28;20133;-67
2022/09/09 01:20:05;;;;;;;0.40;0.40;;;;;;;16.53;80.64;99375.94;4978217;28;20050;-67
2022/09/09 01:22:50;;;;;;;0.40;0.40;;;;;;;16.55;80.88;99374.16;4996714;28;20049;-67
2022/09/09 01:25:32;;;;;;;0.55;0.55;;;;;;;16.50;80.73;99373.41;4978635;28;20046;-66
2022/09/09 01:28:14;;;;;;;0.70;0.70;;;;;;;16.40;81.20;99374.56;4995264;28;20496;-66
2022/09/09 01:30:44;;;;;;;0.50;0.50;;;;;;;16.28;80.98;99362.91;4977888;28;20050;-66
2022/09/09 01:33:19;;;;;;;0.40;0.40;;;;;;;16.25;81.26;99362.13;4995176;28;20054;-67
2022/09/09 01:35:54;;;;;;;0.63;0.63;;;;;;;16.24;81.65;99373.34;4977793;28;20077;-66
2022/09/09 01:38:26;;;;;;;0.70;0.70;;;;;;;16.23;81.63;99384.50;4994739;28;20046;-67
2022/09/09 01:40:56;;;;;;;0.57;0.57;;;;;;;16.16;81.68;99390.72;4977721;28;20043;-66
2022/09/09 01:43:36;;;;;;;0.40;0.40;;;;;;;16.18;81.77;99394.09;4995308;28;20069;-67
2022/09/09 01:46:05;;;;;;;0.60;0.60;;;;;;;16.18;81.84;99394.09;4995042;28;20046;-66
2022/09/09 01:48:37;;;;;;;0.47;0.47;;;;;;;16.10;81.83;99405.44;4995172;28;20054;-66
2022/09/09 01:51:11;;;;;;;0.50;0.50;;;;;;;16.08;81.72;99409.81;4994851;28;20043;-66
2022/09/09 01:53:42;;;;;;;0.30;0.30;;;;;;;16.04;82.17;99413.34;4977749;28;20053;-66
2022/09/09 01:56:27;;;;;;;0.50;0.50;;;;;;;15.98;82.34;99410.09;4995051;28;20054;-65
2022/09/09 01:59:08;;;;;;;0.43;0.43;;;;;;;15.86;82.32;99397.56;4994787;28;20133;-65
2022/09/09 02:01:53;;;;;;;0.40;0.40;;;;;;;15.84;82.69;99410.44;4977351;28;20070;-66
2022/09/09 02:04:37;;;;;;;1.83;1.30;;;;;;;15.83;82.71;99408.78;4977699;28;20112;-65
2022/09/09 02:07:27;;;;;;;0.82;0.82;;;;;;;15.91;83.00;99411.97;4994560;28;20057;-66
2022/09/09 02:10:04;;;;;;;0.50;0.50;;;;;;;15.99;82.65;99410.06;4994509;28;20077;-66
2022/09/09 02:12:33;;;;;;;0.40;0.40;;;;;;;15.98;82.97;99412.69;4994587;28;20065;-66
2022/09/09 02:15:15;;;;;;;0.50;0.50;;;;;;;15.96;82.94;99415.28;4976956;28;20050;-66
2022/09/09 02:17:52;;;;;;;0.40;0.40;;;;;;;15.87;82.66;99420.69;4977142;28;20049;-64
2022/09/09 02:20:21;;;;;;;0.50;0.50;;;;;;;15.83;83.03;99424.22;4977365;28;20050;-65
2022/09/09 02:22:57;;;;;;;0.40;0.40;;;;;;;15.90;82.69;99410.31;4995222;28;20365;-66
2022/09/09 02:25:30;;;;;;;0.70;0.70;;;;;;;15.89;82.93;99416.31;4976950;28;20042;-65
2022/09/09 02:28:10;;;;;;;0.40;0.40;;;;;;;15.86;82.79;99413.81;4994363;28;20054;-66
2022/09/09 02:30:43;;;;;;;1.15;1.05;;;;;;;15.90;82.89;99420.59;4977030;28;20043;-66
2022/09/09 02:33:15;;;;;;;0.70;0.50;;;;;;;15.99;83.16;99420.34;4976988;28;20519;-66
2022/09/09 02:35:49;;;;;;;0.65;0.57;;;;;;;16.06;82.83;99416.72;4994547;28;20514;-65
2022/09/09 02:38:25;;;;;;;0.70;0.70;;;;;;;16.06;82.57;99416.72;4976923;28;20042;-66
2022/09/09 02:41:03;;;;;;;0.60;0.60;;;;;;;16.02;82.62;99428.00;4994133;28;20050;-66
2022/09/09 02:43:33;;;;;;;0.57;0.57;;;;;;;15.95;82.21;99426.47;4977225;28;20046;-66
2022/09/09 02:46:19;;;;;;;0.60;0.60;;;;;;;15.93;82.27;99417.94;4994355;28;20211;-66
2022/09/09 02:48:58;;;;;;;0.40;0.40;;;;;;;15.80;82.34;99418.28;4976927;28;20061;-65
2022/09/09 02:51:40;;;;;;;0.38;0.38;;;;;;;15.70;82.38;99422.84;4994052;28;20096;-65
2022/09/09 02:54:16;;;;;;;0.90;0.57;;;;;;;15.72;82.74;99426.22;4976706;28;20054;-65
2022/09/09 02:56:50;;;;;;;2.58;1.02;;;;;;;15.62;82.55;99435.03;4976687;28;20046;-66
2022/09/09 02:59:22;;;;;;;0.50;0.50;;;;;;;15.61;83.27;99438.50;4994007;28;20054;-64
2022/09/09 03:01:53;;;;;;;0.60;0.60;;;;;;;15.65;83.20;99440.13;4977003;28;20065;-66
2022/09/09 03:04:24;;;;;;;0.45;0.45;;;;;;;15.72;83.15;99436.50;4993993;28;20057;-66
2022/09/09 03:06:53;;;;;;;0.30;0.30;;;;;;;15.67;83.19;99440.91;4993882;28;20489;-65
2022/09/09 03:09:22;;;;;;;0.40;0.40;;;;;;;15.63;83.30;99441.88;4993958;28;20043;-66
2022/09/09 03:11:51;;;;;;;0.57;0.57;;;;;;;15.62;83.23;99435.03;4994116;28;20039;-65
2022/09/09 03:14:24;;;;;;;0.40;0.40;;;;;;;15.57;82.92;99434.34;4993996;28;20085;-66
2022/09/09 03:16:56;;;;;;;0.40;0.40;;;;;;;15.42;82.79;99435.53;4993888;28;20048;-66
2022/09/09 03:19:26;;;;;;;0.57;0.57;;;;;;;15.39;83.34;99438.16;4994147;28;20042;-65
2022/09/09 03:21:55;;;;;;;0.30;0.30;;;;;;;15.40;83.23;99439.81;4993967;28;20242;-66
2022/09/09 03:24:25;;;;;;;0.40;0.40;;;;;;;15.50;83.16;99430.19;4976505;28;20060;-66
2022/09/09 03:26:55;;;;;;;0.63;0.50;;;;;;;15.58;83.42;99430.88;4995060;28;20385;-65
2022/09/09 03:29:24;;;;;;;0.50;0.50;;;;;;;15.66;83.35;99435.81;4997527;28;20519;-66
2022/09/09 03:31:57;;;;;;;0.30;0.30;;;;;;;15.61;83.39;99432.50;4997382;28;20061;-66
2022/09/09 03:34:26;;;;;;;0.40;0.40;;;;;;;15.55;83.13;99430.13;4997716;28;20081;-66
2022/09/09 03:36:57;;;;;;;0.50;0.50;;;;;;;15.55;83.28;99427.53;4980544;28;20507;-66
2022/09/09 03:39:28;;;;;;;0.38;0.38;;;;;;;15.61;82.92;99433.38;4998411;28;20050;-66
2022/09/09 03:42:03;;;;;;;0.63;0.63;;;;;;;15.65;82.85;99429.81;4979871;28;20492;-65
2022/09/09 03:44:33;;;;;;;0.40;0.40;;;;;;;15.60;83.05;99430.81;4997194;28;20523;-66
2022/09/09 03:47:03;;;;;;;0.70;0.70;;;;;;;15.60;83.11;99433.38;4980006;28;20047;-66
2022/09/09 03:49:32;;;;;;;0.88;0.88;;;;;;;15.62;83.08;99429.88;4979781;28;20046;-65
2022/09/09 03:52:01;;;;;;;;;;;;;;;15.59;83.00;99435.13;4997697;28;20038;-66
2022/09/09 03:54:30;;;;;;;0.30;0.30;;;;;;;15.55;82.67;99430.13;4997255;28;19961;-66
2022/09/09 03:56:59;;;;;;;0.40;0.40;;;;;;;15.57;82.99;99436.06;4979987;28;20488;-66
2022/09/09 03:59:27;;;;;;;0.95;0.77;;;;;;;15.59;83.13;99436.88;4979562;28;20050;-66
2022/09/09 04:01:57;;;;;;;1.10;1.02;;;;;;;15.64;82.91;99433.31;4979779;28;20113;-66
2022/09/09 04:04:27;;;;;;;0.50;0.50;;;;;;;15.68;83.02;99431.47;4979443;28;20046;-66
2022/09/09 04:06:56;;;;;;;0.50;0.50;;;;;;;15.71;83.15;99432.25;4979289;28;20057;-66
2022/09/09 04:09:25;;;;;;;0.40;0.40;;;;;;;15.70;82.80;99433.13;4997071;28;20046;-66
2022/09/09 04:11:54;;;;;;;0.60;0.60;;;;;;;15.69;82.73;99435.75;4979496;28;20611;-65
2022/09/09 04:14:27;;;;;;;1.17;0.82;;;;;;;15.64;82.28;99438.44;4979252;28;20057;-65
2022/09/09 04:16:58;;;;;;;0.50;0.50;;;;;;;15.54;82.06;99441.28;4979286;28;20051;-66
2022/09/09 04:19:28;;;;;;;0.68;0.50;;;;;;;15.27;82.17;99438.44;4996906;28;20050;-65
2022/09/09 04:21:57;;;;;;;1.02;0.85;;;;;;;15.17;82.69;99428.41;4979144;28;20073;-65
2022/09/09 04:24:27;;;;;;;0.55;0.55;;;;;;;15.16;83.00;99431.88;4979441;28;20051;-65
2022/09/09 04:26:56;;;;;;;0.40;0.40;;;;;;;15.17;82.93;99431.81;4979049;28;20054;-66
2022/09/09 04:29:25;;;;;;;0.95;0.77;;;;;;;15.18;83.05;99422.41;4979086;28;20130;-65
2022/09/09 04:31:53;;;;;;;0.60;0.60;;;;;;;15.14;83.38;99426.75;4996358;28;20040;-65
2022/09/09 04:34:22;;;;;;;0.70;0.70;;;;;;;15.22;82.84;99421.44;4979119;28;20042;-65
2022/09/09 04:36:52;;;;;;;0.93;0.70;;;;;;;15.18;82.85;99419.81;4978947;28;20047;-65
2022/09/09 04:39:21;;;;;;;0.30;0.30;;;;;;;15.18;82.92;99417.25;4995836;28;20113;-66
2022/09/09 04:41:50;;;;;;;0.47;0.47;;;;;;;15.22;82.82;99427.44;4978833;28;20041;-65
2022/09/09 04:44:19;;;;;;;0.38;0.38;;;;;;;15.15;83.11;99427.59;4996533;28;20445;-65
2022/09/09 04:46:48;;;;;;;0.50;0.50;;;;;;;15.19;83.33;99429.22;4995929;28;20130;-66
2022/09/09 04:49:17;;;;;;;0.32;0.32;;;;;;;15.18;83.13;99430.97;4996300;28;20085;-66
2022/09/09 04:51:46;;;;;;;0.52;0.47;;;;;;;15.21;83.14;99432.63;4995949;28;20058;-67
2022/09/09 04:54:17;;;;;;;0.63;0.63;;;;;;;15.21;83.31;99440.31;4978864;28;20046;-67
2022/09/09 04:56:46;;;;;;;9.45;1.67;;;;;;;15.22;83.59;99434.28;4978818;28;20053;-67
2022/09/09 04:59:15;;;;;;;0.40;0.40;;;;;;;15.25;83.24;99436.78;4995800;28;20046;-66
2022/09/09 05:01:48;;;;;;;0.98;0.88;;;;;;;15.22;83.22;99436.84;4995802;28;20058;-66
2022/09/09 05:04:17;;;;;;;0.60;0.60;;;;;;;15.28;83.88;99444.44;4996023;28;20109;-66
2022/09/09 05:06:45;;;;;;;0.50;0.50;;;;;;;15.30;83.29;99438.38;4995644;28;20046;-66
2022/09/09 05:09:16;;;;;;;0.82;0.82;;;;;;;15.32;83.45;99434.03;4978330;28;20038;-67
2022/09/09 05:11:46;;;;;;;0.57;0.57;;;;;;;15.29;83.77;99435.84;4995880;28;20385;-66
2022/09/09 05:14:30;;;;;;;0.98;0.88;;;;;;;15.32;83.92;99433.19;4995385;28;20145;-66
2022/09/09 05:17:01;;;;;;;0.82;0.75;;;;;;;15.35;84.34;99446.84;4978366;28;20138;-65
2022/09/09 05:19:30;;;;;;;0.63;0.55;;;;;;;15.38;84.05;99445.91;4978075;28;20121;-65
2022/09/09 05:22:00;;;;;;;;;;;;;;;15.43;84.55;99439.75;4996157;28;20468;-65
2022/09/09 05:24:39;;;;;;;0.85;0.85;;;;;;;15.59;84.61;99437.72;4978074;28;19922;-66
2022/09/09 05:27:11;;;;;;;1.33;1.23;;;;;;;15.74;84.78;99442.44;4977908;28;20097;-66
2022/09/09 05:29:44;;;;;;;3.75;1.13;;;;;;;15.86;84.69;99433.59;4995190;28;20051;-66
2022/09/09 05:32:15;;;;;;;0.50;0.50;;;;;;;15.97;84.34;99427.28;4978169;28;20085;-67
2022/09/09 05:34:47;;;;;;;0.90;0.90;;;;;;;16.15;84.40;99436.22;4978033;28;20069;-65
2022/09/09 05:37:16;;;;;;;1.00;0.90;;;;;;;16.27;84.00;99425.56;4977564;28;20512;-66
2022/09/09 05:39:46;;;;;;;0.70;0.70;;;;;;;16.44;84.23;99432.84;4977728;28;20079;-66
2022/09/09 05:42:15;;;;;;;1.45;0.80;;;;;;;16.57;83.98;99434.22;4995396;28;20104;-68
2022/09/09 05:44:44;;;;;;;0.60;0.60;;;;;;;16.66;83.76;99432.22;4995101;28;20039;-67
2022/09/09 05:47:15;;;;;;;0.40;0.40;;;;;;;16.77;83.52;99433.63;4977905;28;20034;-67
2022/09/09 05:49:44;;;;;;;1.55;1.45;;;;;;;16.90;83.82;99443.53;4977036;28;20093;-68
2022/09/09 05:52:13;;;;;;;0.70;0.70;;;;;;;17.01;83.49;99441.44;4980154;28;20129;-67
2022/09/09 05:54:42;;;;;;;0.70;0.70;;;;;;;17.12;83.69;99435.97;4995477;28;20049;-66
2022/09/09 05:57:13;;;;;;;1.42;0.60;;;;;;;17.19;83.58;99446.06;4977494;28;20126;-66
2022/09/09 05:59:41;;;;;;;1.63;0.68;;;;;;;17.27;83.14;99449.25;4977737;28;20047;-67
2022/09/09 06:02:10;;;;;;;1.15;1.05;;;;;;;17.30;83.24;99443.97;4994931;28;20129;-66
2022/09/09 06:04:40;;;;;;;0.98;0.73;;;;;;;17.38;83.07;99443.75;4977533;28;20085;-66
2022/09/09 06:07:08;;;;;;;1.35;1.25;;;;;;;17.50;82.95;99442.50;4994466;28;20058;-65
2022/09/09 06:09:37;;;;;;;0.75;0.75;;;;;;;17.61;82.72;99433.53;4977236;28;20053;-66
2022/09/09 06:12:09;;;;;;;1.45;1.08;;;;;;;17.73;82.43;99437.47;4977210;28;20495;-67
2022/09/09 06:14:40;;;;;;;0.85;0.85;;;;;;;17.88;82.03;99430.03;4994418;28;20053;-66
2022/09/09 06:17:15;;;;;;;0.77;0.77;;;;;;;18.03;81.60;99421.75;4994841;28;20072;-66
2022/09/09 06:19:44;;;;;;;0.70;0.70;;;;;;;18.19;81.06;99422.06;4977353;28;20046;-66
2022/09/09 06:22:12;;;;;;;1.15;1.05;;;;;;;18.26;80.42;99431.25;4977130;28;20046;-65
2022/09/09 06:24:42;;;;;;;1.30;1.20;;;;;;;18.30;79.80;99432.88;4994428;28;20108;-66
2022/09/09 06:27:13;;;;;;;0.57;0.57;;;;;;;18.30;79.67;99443.19;4977078;28;20042;-65
2022/09/09 06:29:44;;;;;;;1.02;0.88;;;;;;;18.33;79.55;99437.91;4994187;28;20043;-66
2022/09/09 06:32:13;;;;;;;0.63;0.63;;;;;;;18.38;79.32;99442.94;4977223;28;20149;-65
2022/09/09 06:34:42;;;;;;;0.50;0.50;;;;;;;18.54;79.44;99437.19;4976670;28;20077;-66
2022/09/09 06:37:11;;;;;;;1.42;0.93;;;;;;;18.65;78.70;99437.59;4976961;28;20057;-65
2022/09/09 06:39:45;;;;;;;1.52;1.25;;;;;;;18.79;78.43;99433.69;4975208;28;20050;-65
2022/09/09 06:42:15;;;;;;;0.70;0.70;;;;;;;18.90;78.01;99436.69;4977025;28;20070;-65
2022/09/09 06:44:58;;;;;;;1.65;1.25;;;;;;;19.02;77.39;99442.25;4994419;28;20081;-65
2022/09/09 06:47:56;;;;;;;0.60;0.60;;;;;;;19.16;77.04;99454.63;4989693;28;20444;-65
2022/09/09 06:50:25;;;;;;;0.77;0.77;;;;;;;19.26;76.54;99455.94;4977157;28;20054;-66
2022/09/09 06:52:54;;;;;;;0.50;0.50;;;;;;;19.34;76.07;99453.88;4976900;28;20042;-66
2022/09/09 06:55:22;;;;;;;1.27;1.17;;;;;;;19.44;75.93;99450.06;4992109;28;20132;-65
2022/09/09 06:57:51;;;;;;;0.75;0.75;;;;;;;19.58;75.63;99446.94;4976692;28;20280;-65
2022/09/09 07:00:25;;;;;;;1.00;0.90;;;;;;;19.69;75.40;99452.50;4994518;28;20050;-65
2022/09/09 07:02:54;;;;;;;1.33;0.80;;;;;;;19.74;75.03;99446.22;4997913;28;20043;-65
2022/09/09 07:05:23;;;;;;;0.60;0.60;;;;;;;19.83;74.61;99440.66;4980025;28;20129;-65
2022/09/09 07:07:53;;;;;;;0.93;0.75;;;;;;;19.96;74.45;99443.59;4998450;28;20046;-66
2022/09/09 07:10:22;;;;;;;0.95;0.80;;;;;;;20.08;74.12;99438.69;4996031;28;20400;-65
2022/09/09 07:12:53;;;;;;;0.77;0.77;;;;;;;20.20;73.64;99431.31;4979270;28;20038;-67
2022/09/09 07:15:26;;;;;;;0.80;0.80;;;;;;;20.30;73.33;99422.25;4980625;28;20481;-65
2022/09/09 07:17:56;;;;;;;0.80;0.80;;;;;;;20.39;72.95;99416.66;4998099;28;20049;-66
2022/09/09 07:20:25;;;;;;;1.08;1.00;;;;;;;20.50;72.68;99415.25;4980283;28;20539;-65
2022/09/09 07:22:56;;;;;;;0.55;0.55;;;;;;;20.56;72.19;99419.34;4980534;28;20050;-65
2022/09/09 07:25:24;;;;;;;0.40;0.40;;;;;;;20.63;71.93;99423.34;4979400;28;20444;-66
2022/09/09 07:27:53;;;;;;;0.93;0.80;;;;;;;20.77;71.56;99418.34;4996295;28;20042;-66
2022/09/09 07:30:22;;;;;;;0.40;0.40;;;;;;;20.90;70.50;99416.84;4996716;28;20511;-66
2022/09/09 07:32:59;;;;;;;0.80;0.80;;;;;;;21.02;70.72;99413.69;4980468;28;20050;-66
2022/09/09 07:35:29;;;;;;;0.73;0.73;;;;;;;21.17;70.51;99418.19;4997504;28;20046;-66
2022/09/09 07:37:58;;;;;;;0.50;0.50;;;;;;;21.29;69.61;99417.59;4979979;28;20038;-65
2022/09/09 07:40:26;;;;;;;0.40;0.40;;;;;;;21.28;68.86;99423.69;5016412;28;20140;-66
2022/09/09 07:42:55;;;;;;;0.50;0.50;;;;;;;21.32;68.46;99416.59;5017038;28;20038;-66
2022/09/09 07:45:25;;;;;;;0.47;0.47;;;;;;;21.42;68.56;99406.59;4999414;28;20399;-65
2022/09/09 07:47:55;;;;;;;0.70;0.70;;;;;;;21.55;67.96;99407.66;5016761;28;20096;-66
2022/09/09 07:50:25;;;;;;;0.63;0.63;;;;;;;21.67;67.60;99401.88;4993392;28;20038;-66
2022/09/09 07:52:55;;;;;;;0.65;0.65;;;;;;;21.69;67.58;99400.06;4986279;28;20088;-65
2022/09/09 07:55:26;;;;;;;0.65;0.52;;;;;;;21.72;67.39;99402.47;4997151;28;20046;-66
2022/09/09 07:57:56;;;;;;;0.70;0.70;;;;;;;21.78;67.56;99412.56;4997146;28;20043;-66
2022/09/09 08:00:26;;;;;;;0.82;0.82;;;;;;;21.84;67.89;99410.53;5013631;28;20081;-66
2022/09/09 08:02:58;;;;;;;0.50;0.50;;;;;;;21.93;67.81;99425.66;4974862;28;20133;-66
2022/09/09 08:05:28;;;;;;;0.50;0.50;;;;;;;21.97;66.90;99428.94;4976676;28;20378;-66
2022/09/09 08:07:57;;;;;;;0.57;0.57;;;;;;;22.06;66.71;99420.66;4977948;28;20156;-64
2022/09/09 08:10:25;;;;;;;0.68;0.68;;;;;;;22.14;66.22;99418.53;4977798;28;20051;-66
2022/09/09 08:12:56;;;;;;;0.52;0.50;;;;;;;22.19;66.27;99416.53;5002806;28;20034;-66
2022/09/09 08:15:44;;;;;;;0.60;0.60;;;;;;;22.22;66.34;99416.34;4999994;28;20072;-66
2022/09/09 08:18:14;;;;;;;1.35;0.75;;;;;;;22.15;66.33;99414.16;4999071;28;20763;-66
2022/09/09 08:20:44;;;;;;;0.60;0.60;;;;;;;22.21;66.26;99424.22;4974535;28;20043;-66
2022/09/09 08:23:13;;;;;;;3.83;0.93;;;;;;;22.32;66.05;99429.69;4997026;28;20046;-65
2022/09/09 08:25:42;;;;;;;0.80;0.80;;;;;;;22.49;66.17;99429.66;4979241;28;20096;-66
2022/09/09 08:28:11;;;;;;;0.50;0.50;;;;;;;22.58;65.51;99432.59;4996848;28;20038;-65
2022/09/09 08:30:40;;;;;;;0.50;0.50;;;;;;;22.59;65.17;99431.69;4979349;28;20054;-65
2022/09/09 08:33:10;;;;;;;1.35;1.05;;;;;;;22.63;65.04;99428.03;4979110;28;20073;-65
2022/09/09 08:35:39;;;;;;;0.75;0.75;;;;;;;22.68;64.74;99420.81;4985492;28;20050;-66
2022/09/09 08:38:09;;;;;;;0.70;0.70;;;;;;;22.82;64.60;99421.84;5005073;28;20045;-65
2022/09/09 08:40:49;;;;;;;0.57;0.57;;;;;;;22.93;64.39;99422.09;5004325;28;20084;-64
2022/09/09 08:43:22;;;;;;;0.80;0.75;;;;;;;23.12;64.89;99415.78;4987469;28;20045;-65
2022/09/09 08:46:00;;;;;;;0.60;0.60;;;;;;;23.27;63.97;99419.28;4997246;28;20374;-65
2022/09/09 08:48:45;;;;;;;0.50;0.50;;;;;;;23.33;62.92;99419.78;4996052;28;20050;-65
2022/09/09 08:51:14;;;;;;;2.50;0.73;;;;;;;23.34;61.37;99425.81;4996081;28;20061;-66
2022/09/09 08:53:53;;;;;;;2.58;0.90;;;;;;;23.31;61.45;99423.38;4978856;28;20057;-65
2022/09/09 08:56:33;;;;;;;0.70;0.70;;;;;;;23.32;61.38;99428.50;4978711;28;20047;-65
2022/09/09 08:59:05;;;;;;;0.50;0.50;;;;;;;23.41;60.96;99421.97;4994559;28;20050;-65
2022/09/09 09:02:01;;;;;;;0.60;0.60;;;;;;;23.52;60.44;99419.56;4970519;28;20104;-66
2022/09/09 09:05:01;;;;;;;0.52;0.50;;;;;;;23.61;59.70;99418.22;4978684;28;20104;-66
2022/09/09 09:07:44;;;;;;;0.40;0.40;;;;;;;23.68;60.27;99415.16;4983151;28;20046;-66
2022/09/09 09:10:26;;;;;;;0.40;0.40;;;;;;;23.73;60.29;99418.31;4997810;28;20134;-65
2022/09/09 09:13:20;;;;;;;0.50;0.50;;;;;;;23.85;59.88;99412.41;5011366;28;20069;-65
2022/09/09 09:15:59;;;;;;;0.65;0.65;;;;;;;23.91;59.42;99411.19;4986746;28;20053;-66
2022/09/09 09:18:29;;;;;;;0.57;0.52;;;;;;;24.06;58.66;99419.88;4978586;28;20047;-65
2022/09/09 09:21:07;;;;;;;1.00;0.70;;;;;;;24.10;56.72;99405.75;4982081;28;20042;-66
2022/09/09 09:23:42;;;;;;;0.50;0.50;;;;;;;24.24;56.46;99413.56;4997124;28;20587;-68
2022/09/09 09:26:12;;;;;;;0.40;0.40;;;;;;;24.45;55.92;99402.66;4994880;28;20575;-65
2022/09/09 09:28:43;;;;;;;0.40;0.40;;;;;;;24.57;54.91;99411.53;4997612;28;20396;-65
2022/09/09 09:31:16;;;;;;;0.55;0.55;;;;;;;24.47;53.64;99413.03;4994401;28;20080;-66
2022/09/09 09:33:52;;;;;;;1.30;0.70;;;;;;;24.36;53.98;99411.06;4997299;28;20137;-66
2022/09/09 09:36:35;;;;;;;0.60;0.60;;;;;;;24.35;55.52;99417.22;4995222;28;20045;-66
2022/09/09 09:39:06;;;;;;;0.40;0.40;;;;;;;24.39;53.19;99415.25;4994919;28;20098;-65
2022/09/09 09:42:12;;;;;;;0.40;0.40;;;;;;;24.29;53.02;99416.75;4988832;28;20042;-66
2022/09/09 09:44:42;;;;;;;0.52;0.52;;;;;;;24.14;51.97;99412.47;4975358;28;20050;-66
2022/09/09 09:47:20;;;;;;;0.40;0.40;;;;;;;24.09;52.43;99406.69;4974654;28;20042;-66
2022/09/09 09:50:02;;;;;;;0.50;0.50;;;;;;;24.24;52.26;99403.97;5014268;28;20050;-66
2022/09/09 09:52:36;;;;;;;0.40;0.40;;;;;;;24.42;49.94;99399.41;4997390;28;20160;-65
2022/09/09 09:55:15;;;;;;;0.60;0.60;;;;;;;24.65;50.14;99393.59;5014853;28;20514;-65
2022/09/09 09:57:48;;;;;;;0.47;0.47;;;;;;;24.79;48.88;99396.22;4996811;28;20042;-65
2022/09/09 10:00:20;;;;;;;0.65;0.65;;;;;;;24.93;48.63;99387.53;4997303;28;20487;-65
2022/09/09 10:03:01;;;;;;;0.40;0.40;;;;;;;25.13;48.58;99410.56;5014460;28;20509;-66
2022/09/09 10:05:37;;;;;;;0.50;0.50;;;;;;;25.20;47.27;99407.47;4996700;28;20133;-66
2022/09/09 10:08:13;;;;;;;0.57;0.57;;;;;;;25.39;48.27;99406.28;5014132;28;20137;-66
2022/09/09 10:11:01;;;;;;;1.08;0.98;;;;;;;25.51;47.60;99410.69;5014694;28;20069;-66
2022/09/09 10:13:45;;;;;;;0.67;0.67;;;;;;;25.60;47.98;99404.88;5014333;28;20050;-66
2022/09/09 10:16:30;;;;;;;1.15;0.85;;;;;;;25.69;47.68;99412.13;5014332;28;20302;-66
2022/09/09 10:19:01;;;;;;;0.40;0.40;;;;;;;25.81;46.41;99413.91;5014073;28;20069;-66
2022/09/09 10:21:53;;;;;;;0.40;0.40;;;;;;;25.81;45.65;99413.91;5014729;28;20542;-66
2022/09/09 10:24:56;;;;;;;0.40;0.40;;;;;;;26.01;46.50;99407.34;5016632;28;20048;-65
2022/09/09 10:27:34;;;;;;;0.60;0.60;;;;;;;26.07;45.53;99402.50;5014064;28;20056;-67
2022/09/09 10:30:16;;;;;;;0.40;0.40;;;;;;;25.99;45.28;99396.94;4998019;28;20046;-65
2022/09/09 10:32:55;;;;;;;2.65;0.93;;;;;;;25.94;45.58;99393.81;4994640;28;20130;-65
2022/09/09 10:35:30;;;;;;;0.40;0.40;;;;;;;26.18;46.78;99393.97;4991181;28;20065;-66
2022/09/09 10:38:16;;;;;;;0.70;0.40;;;;;;;26.23;46.39;99384.84;4994876;28;20054;-66
2022/09/09 10:41:12;;;;;;;0.47;0.47;;;;;;;26.36;46.31;99396.13;4993807;28;20113;-67
2022/09/09 10:44:08;;;;;;;0.50;0.50;;;;;;;26.63;46.64;99391.56;4994948;28;20043;-65
2022/09/09 10:46:53;;;;;;;0.40;0.40;;;;;;;26.85;45.35;99408.41;4995783;28;20054;-66
2022/09/09 10:49:42;;;;;;;0.40;0.40;;;;;;;26.81;45.08;99399.06;4995276;28;20435;-70
2022/09/09 10:52:19;;;;;;;0.40;0.40;;;;;;;26.73;44.10;99398.78;4995926;28;20556;-67
2022/09/09 10:54:58;;;;;;;0.43;0.43;;;;;;;26.63;42.76;99399.41;5002493;28;20050;-66
2022/09/09 10:57:31;;;;;;;;;;;;;;;26.65;44.14;99404.56;4989894;28;20058;-66
2022/09/09 11:00:06;;;;;;;0.40;0.40;;;;;;;26.76;44.20;99394.16;4979457;28;19984;-66
2022/09/09 11:02:39;;;;;;;0.40;0.40;;;;;;;26.86;46.43;99403.06;4974872;28;20130;-66
2022/09/09 11:05:15;;;;;;;1.05;0.50;;;;;;;26.76;47.96;99390.72;4974964;28;20069;-66
2022/09/09 11:07:52;;;;;;;0.57;0.57;;;;;;;26.45;48.17;99385.00;4974565;28;20046;-67
2022/09/09 11:10:28;;;;;;;0.40;0.40;;;;;;;26.02;47.18;99391.53;4957346;28;20042;-66
2022/09/09 11:13:00;;;;;;;0.70;0.60;;;;;;;25.76;47.44;99397.69;4974700;28;20050;-65
2022/09/09 11:15:36;;;;;;;0.52;0.52;;;;;;;25.72;46.59;99398.84;4974817;28;20094;-66
2022/09/09 11:18:12;;;;;;;0.47;0.47;;;;;;;25.76;44.55;99400.31;4974491;28;20078;-66
2022/09/09 11:20:42;;;;;;;0.50;0.50;;;;;;;25.74;43.95;99389.09;4983113;28;20038;-66
2022/09/09 11:23:16;;;;;;;0.40;0.40;;;;;;;25.65;43.14;99393.16;5003296;28;20133;-67
2022/09/09 11:25:51;;;;;;;0.40;0.40;;;;;;;25.60;42.25;99399.66;5000819;28;20397;-67
2022/09/09 11:28:42;;;;;;;0.45;0.40;;;;;;;25.54;41.42;99400.91;4985645;28;20050;-66
2022/09/09 11:31:29;;;;;;;0.50;0.50;;;;;;;25.62;42.25;99400.38;4998200;28;20389;-65
2022/09/09 11:34:19;;;;;;;0.50;0.50;;;;;;;25.68;42.73;99402.56;4977852;28;20047;-65
2022/09/09 11:37:06;;;;;;;0.60;0.60;;;;;;;25.72;42.85;99398.84;4932836;28;20042;-66
2022/09/09 11:40:01;;;;;;;0.50;0.50;;;;;;;25.76;41.74;99395.06;4974204;28;20050;-66
2022/09/09 11:42:30;;;;;;;0.45;0.45;;;;;;;25.79;41.78;99400.09;4974502;28;20047;-66
2022/09/09 11:45:09;;;;;;;0.40;0.40;;;;;;;25.77;41.64;99405.41;4974563;28;20035;-66
2022/09/09 11:47:38;;;;;;;0.40;0.40;;;;;;;25.75;41.10;99398.63;4974803;28;20285;-65
2022/09/09 11:50:30;;;;;;;0.30;0.30;;;;;;;25.86;41.27;99401.38;4977630;28;20122;-66
2022/09/09 11:53:20;;;;;;;0.50;0.50;;;;;;;25.93;40.73;99386.94;4977968;28;20066;-66
2022/09/09 11:56:02;;;;;;;0.40;0.40;;;;;;;26.06;40.67;99379.88;4977742;28;20050;-68
2022/09/09 11:58:37;;;;;;;0.45;0.45;;;;;;;26.37;40.73;99379.47;4978079;28;20054;-66
2022/09/09 12:01:30;;;;;;;0.50;0.50;;;;;;;26.72;41.44;99384.00;4977751;28;20122;-64
2022/09/09 12:04:18;;;;;;;0.73;0.73;;;;;;;26.95;42.17;99388.44;4977599;28;20046;-65
2022/09/09 12:06:55;;;;;;;0.95;0.88;;;;;;;26.88;42.14;99388.06;4977410;28;20126;-66
2022/09/09 12:09:45;;;;;;;0.40;0.40;;;;;;;26.83;43.08;99378.84;4977736;28;20065;-65